createdAt,value
2023-03-16T00:00:47.259Z,56.10
2023-03-16T00:03:19.358Z,56.48
2023-03-16T00:05:49.984Z,56.49
2023-03-16T00:08:17.700Z,56.27
2023-03-16T00:10:47.178Z,56.21
2023-03-16T00:13:15.426Z,56.55
2023-03-16T00:15:50.044Z,56.54
2023-03-16T00:18:16.639Z,56.94
2023-03-16T00:20:43.033Z,56.53
2023-03-16T00:23:09.546Z,57.17
2023-03-16T00:25:35.999Z,56.90
2023-03-16T00:28:03.636Z,56.21
2023-03-16T00:30:32.626Z,56.95
2023-03-16T00:32:59.349Z,57.18
2023-03-16T00:35:25.971Z,56.87
2023-03-16T00:37:52.584Z,57.02
2023-03-16T00:40:19.147Z,56.53
2023-03-16T00:42:45.563Z,57.22
2023-03-16T00:45:12.131Z,56.89
2023-03-16T00:47:39.607Z,57.55
2023-03-16T00:50:06.536Z,56.84
2023-03-16T00:52:35.296Z,56.91
2023-03-16T00:55:04.713Z,57.78
2023-03-16T00:57:31.832Z,57.47
2023-03-16T00:59:59.222Z,57.36
2023-03-16T01:02:27.111Z,57.57
2023-03-16T01:04:54.694Z,57.90
2023-03-16T01:07:21.938Z,57.50
2023-03-16T01:09:48.610Z,57.90
2023-03-16T01:12:17.617Z,58.19
2023-03-16T01:14:47.523Z,58.10
2023-03-16T01:17:15.484Z,58.30
2023-03-16T01:19:43.432Z,58.31
2023-03-16T01:22:11.593Z,58.08
2023-03-16T01:24:39.734Z,58.65
2023-03-16T01:27:07.766Z,58.36
2023-03-16T01:29:34.867Z,58.71
2023-03-16T01:32:01.991Z,58.52
2023-03-16T01:34:28.696Z,58.46
2023-03-16T01:36:56.177Z,58.94
2023-03-16T01:39:26.920Z,58.83
2023-03-16T01:41:53.530Z,59.25
2023-03-16T01:44:24.537Z,59.59
2023-03-16T01:46:51.461Z,59.41
2023-03-16T01:49:23.738Z,59.40
2023-03-16T01:51:56.432Z,60.09
2023-03-16T01:54:50.713Z,59.61
2023-03-16T01:57:20.847Z,59.72
2023-03-16T01:59:59.236Z,60.11
2023-03-16T02:02:30.742Z,59.85
2023-03-16T02:05:07.058Z,60.13
2023-03-16T02:07:42.314Z,59.89
2023-03-16T02:10:11.918Z,60.36
2023-03-16T02:12:39.035Z,60.13
2023-03-16T02:15:06.451Z,60.96
2023-03-16T02:17:36.325Z,61.46
2023-03-16T02:20:36.190Z,61.03
2023-03-16T02:23:05.136Z,61.05
2023-03-16T02:25:42.613Z,61.36
2023-03-16T02:28:24.694Z,61.55
2023-03-16T02:30:53.498Z,61.96
2023-03-16T02:33:21.402Z,61.29
2023-03-16T02:35:47.971Z,62.15
2023-03-16T02:38:14.418Z,62.03
2023-03-16T02:40:58.130Z,63.12
2023-03-16T02:43:33.195Z,63.07
2023-03-16T02:46:26.834Z,62.65
2023-03-16T02:49:08.140Z,62.58
2023-03-16T02:51:36.381Z,63.21
2023-03-16T02:54:03.220Z,63.40
2023-03-16T02:56:32.589Z,63.23
2023-03-16T02:58:59.203Z,64.00
2023-03-16T03:01:26.198Z,63.98
2023-03-16T03:03:52.753Z,64.59
2023-03-16T03:06:19.464Z,64.75
2023-03-16T03:08:46.086Z,64.51
2023-03-16T03:11:12.705Z,64.43
2023-03-16T03:13:39.234Z,64.54
2023-03-16T03:16:10.654Z,64.61
2023-03-16T03:18:37.748Z,65.51
2023-03-16T03:21:05.096Z,65.56
2023-03-16T03:23:35.397Z,65.62
2023-03-16T03:26:02.927Z,66.54
2023-03-16T03:28:30.638Z,66.62
2023-03-16T03:30:57.243Z,66.65
2023-03-16T03:33:23.741Z,66.86
2023-03-16T03:35:58.626Z,67.52
2023-03-16T03:38:28.665Z,67.94
2023-03-16T03:40:59.521Z,67.82
2023-03-16T03:43:28.996Z,68.77
2023-03-16T03:46:03.787Z,68.46
2023-03-16T03:48:33.813Z,68.78
2023-03-16T03:51:02.619Z,68.68
2023-03-16T03:53:51.569Z,68.19
2023-03-16T03:56:23.765Z,68.85
2023-03-16T03:58:50.796Z,68.99
2023-03-16T04:01:27.445Z,69.25
2023-03-16T04:03:53.877Z,69.31
2023-03-16T04:06:20.342Z,69.66
2023-03-16T04:08:46.864Z,69.63
2023-03-16T04:11:17.908Z,70.01
2023-03-16T04:13:44.412Z,69.50
2023-03-16T04:16:11.441Z,69.74
2023-03-16T04:18:42.387Z,69.75
2023-03-16T04:21:15.809Z,69.66
2023-03-16T04:23:42.697Z,69.98
2023-03-16T04:26:09.546Z,69.94
2023-03-16T04:28:36.399Z,69.52
2023-03-16T04:31:06.946Z,69.78
2023-03-16T04:33:42.294Z,70.12
2023-03-16T04:36:09.143Z,70.15
2023-03-16T04:38:37.436Z,69.77
2023-03-16T04:41:05.593Z,70.61
2023-03-16T04:43:36.283Z,70.66
2023-03-16T04:46:16.363Z,71.07
2023-03-16T04:48:42.928Z,70.69
2023-03-16T04:51:10.608Z,70.89
2023-03-16T04:53:41.158Z,71.31
2023-03-16T04:56:19.483Z,70.38
2023-03-16T04:58:51.212Z,70.37
2023-03-16T05:01:19.394Z,70.32
2023-03-16T05:03:47.376Z,70.73
2023-03-16T05:06:13.852Z,71.26
2023-03-16T05:08:41.447Z,71.55
2023-03-16T05:11:08.316Z,71.29
2023-03-16T05:13:40.313Z,71.82
2023-03-16T05:16:07.278Z,71.90
2023-03-16T05:18:37.882Z,71.88
2023-03-16T05:21:04.728Z,72.28
2023-03-16T05:23:42.506Z,72.68
2023-03-16T05:26:09.518Z,72.45
2023-03-16T05:28:37.970Z,73.04
2023-03-16T05:31:06.999Z,72.62
2023-03-16T05:33:41.452Z,72.86
2023-03-16T05:36:11.536Z,73.03
2023-03-16T05:38:40.012Z,73.28
2023-03-16T05:41:09.324Z,73.48
2023-03-16T05:43:59.751Z,74.00
2023-03-16T05:46:35.130Z,74.04
2023-03-16T05:49:04.551Z,73.78
2023-03-16T05:51:31.962Z,73.89
2023-03-16T05:54:00.370Z,74.09
2023-03-16T05:56:41.685Z,74.13
2023-03-16T05:59:08.885Z,74.22
2023-03-16T06:01:35.532Z,75.03
2023-03-16T06:04:03.386Z,74.62
2023-03-16T06:06:33.478Z,74.90
2023-03-16T06:09:06.678Z,75.01
2023-03-16T06:11:33.344Z,74.86
2023-03-16T06:14:01.200Z,74.72
2023-03-16T06:16:28.711Z,74.88
2023-03-16T06:18:59.151Z,74.76
2023-03-16T06:21:26.879Z,75.17
2023-03-16T06:23:56.133Z,75.47
2023-03-16T06:26:22.629Z,76.10
2023-03-16T06:28:49.774Z,75.83
2023-03-16T06:31:16.375Z,75.73
2023-03-16T06:33:45.220Z,75.76
2023-03-16T06:36:11.836Z,75.40
2023-03-16T06:38:43.088Z,76.23
2023-03-16T06:41:24.698Z,76.34
2023-03-16T06:43:51.276Z,76.35
2023-03-16T06:46:17.947Z,76.46
2023-03-16T06:48:44.403Z,76.05
2023-03-16T06:51:10.984Z,75.83
2023-03-16T06:53:37.408Z,76.13
2023-03-16T06:56:04.050Z,75.73
2023-03-16T06:58:34.805Z,75.66
2023-03-16T07:01:03.998Z,75.62
2023-03-16T07:03:31.250Z,75.21
2023-03-16T07:06:03.292Z,74.65
2023-03-16T07:08:31.228Z,74.87
2023-03-16T07:10:57.890Z,73.68
2023-03-16T07:13:24.375Z,73.74
2023-03-16T07:15:54.809Z,73.26
2023-03-16T07:18:26.068Z,73.73
2023-03-16T07:20:54.523Z,73.34
2023-03-16T07:23:24.304Z,72.94
2023-03-16T07:25:52.723Z,73.14
2023-03-16T07:28:20.477Z,72.18
2023-03-16T07:31:02.616Z,73.16
2023-03-16T07:33:33.603Z,73.03
2023-03-16T07:36:06.146Z,73.44
2023-03-16T07:38:37.697Z,74.13
2023-03-16T07:41:04.847Z,74.44
2023-03-16T07:43:33.501Z,74.45
2023-03-16T07:46:01.484Z,74.38
2023-03-16T07:48:29.101Z,74.88
2023-03-16T07:50:59.550Z,74.41
2023-03-16T07:53:26.440Z,74.46
2023-03-16T07:56:08.477Z,74.10
2023-03-16T07:58:38.245Z,74.04
2023-03-16T08:01:04.763Z,73.43
2023-03-16T08:03:31.957Z,73.46
2023-03-16T08:05:58.605Z,73.05
2023-03-16T08:08:26.445Z,73.11
2023-03-16T08:10:55.080Z,72.80
2023-03-16T08:13:28.250Z,72.88
2023-03-16T08:16:02.080Z,72.85
2023-03-16T08:18:34.813Z,72.44
2023-03-16T08:21:01.502Z,72.69
2023-03-16T08:23:29.347Z,72.23
2023-03-16T08:25:57.643Z,72.48
2023-03-16T08:28:25.991Z,72.20
2023-03-16T08:30:55.521Z,71.92
2023-03-16T08:33:47.361Z,71.90
2023-03-16T08:36:17.520Z,70.81
2023-03-16T08:39:03.848Z,71.02
2023-03-16T08:41:35.512Z,70.67
2023-03-16T08:44:07.660Z,70.49
2023-03-16T08:46:34.417Z,70.45
2023-03-16T08:49:02.681Z,70.23
2023-03-16T08:51:29.492Z,70.08
2023-03-16T08:53:55.981Z,69.55
2023-03-16T08:56:22.725Z,69.83
2023-03-16T08:58:51.496Z,69.48
2023-03-16T09:01:20.173Z,69.68
2023-03-16T09:03:46.830Z,69.08
2023-03-16T09:06:16.086Z,69.30
2023-03-16T09:08:44.300Z,68.92
2023-03-16T09:11:16.174Z,68.68
2023-03-16T09:13:44.554Z,68.12
2023-03-16T09:16:12.713Z,67.94
2023-03-16T09:18:39.862Z,68.10
2023-03-16T09:21:08.600Z,67.13
2023-03-16T09:23:37.462Z,67.41
2023-03-16T09:26:07.418Z,67.56
2023-03-16T09:28:35.936Z,67.19
2023-03-16T09:31:03.281Z,67.02
2023-03-16T09:33:31.848Z,67.04
2023-03-16T09:35:58.545Z,66.79
2023-03-16T09:38:28.827Z,66.50
2023-03-16T09:41:14.020Z,66.53
2023-03-16T09:43:56.647Z,65.75
2023-03-16T09:46:35.834Z,65.91
2023-03-16T09:49:03.750Z,65.69
2023-03-16T09:51:36.813Z,64.33
2023-03-16T09:54:13.269Z,64.50
2023-03-16T09:56:43.121Z,63.56
2023-03-16T09:59:15.247Z,62.80
2023-03-16T10:02:15.568Z,61.94
2023-03-16T10:04:56.653Z,61.73
2023-03-16T10:07:46.772Z,62.17
2023-03-16T10:10:44.533Z,61.89
2023-03-16T10:13:48.337Z,60.11
2023-03-16T10:16:20.796Z,60.77
2023-03-16T10:18:50.805Z,60.64
2023-03-16T10:21:19.353Z,60.22
2023-03-16T10:23:48.433Z,60.30
2023-03-16T10:26:44.215Z,59.90
2023-03-16T10:29:14.569Z,59.94
2023-03-16T10:31:42.813Z,59.94
2023-03-16T10:34:10.718Z,59.90
2023-03-16T10:36:41.896Z,59.58
2023-03-16T10:39:11.799Z,60.10
2023-03-16T10:41:41.988Z,59.62
2023-03-16T10:44:13.232Z,59.71
2023-03-16T10:46:53.393Z,59.33
2023-03-16T10:49:25.754Z,59.12
2023-03-16T10:51:59.430Z,58.33
2023-03-16T10:54:33.506Z,58.76
2023-03-16T10:57:00.555Z,58.65
2023-03-16T10:59:36.955Z,58.85
2023-03-16T11:02:19.417Z,58.97
2023-03-16T11:04:47.818Z,59.01
2023-03-16T11:07:24.079Z,59.42
2023-03-16T11:09:55.496Z,59.48
2023-03-16T11:12:28.737Z,59.80
2023-03-16T11:14:56.203Z,59.27
2023-03-16T11:17:36.248Z,59.19
2023-03-16T11:20:12.224Z,58.82
2023-03-16T11:22:39.177Z,58.82
2023-03-16T11:25:11.548Z,58.95
2023-03-16T11:27:51.381Z,58.71
2023-03-16T11:30:29.176Z,58.20
2023-03-16T11:32:55.886Z,58.35
2023-03-16T11:35:41.959Z,58.06
2023-03-16T11:38:55.808Z,57.77
2023-03-16T11:41:31.629Z,57.40
2023-03-16T11:44:12.959Z,57.48
2023-03-16T11:46:57.995Z,57.77
2023-03-16T11:49:36.997Z,57.15
2023-03-16T11:52:24.631Z,56.69
2023-03-16T11:55:13.064Z,56.51
2023-03-16T11:58:00.697Z,57.14
2023-03-16T12:00:30.511Z,57.17
2023-03-16T12:03:24.675Z,56.91
2023-03-16T12:06:25.894Z,57.04
2023-03-16T12:09:14.648Z,56.78
2023-03-16T12:11:57.601Z,56.46
2023-03-16T12:14:30.464Z,56.37
2023-03-16T12:17:03.057Z,56.68
2023-03-16T12:19:59.656Z,56.40
2023-03-16T12:22:42.109Z,55.68
2023-03-16T12:25:22.174Z,55.69
2023-03-16T12:27:53.490Z,55.45
2023-03-16T12:30:38.643Z,57.12
2023-03-16T12:33:15.054Z,55.50
2023-03-16T12:36:16.856Z,54.73
2023-03-16T12:39:07.842Z,54.13
2023-03-16T12:42:01.933Z,52.69
2023-03-16T12:44:47.240Z,52.98
2023-03-16T12:47:31.293Z,52.80
2023-03-16T12:50:11.154Z,52.08
2023-03-16T12:52:48.553Z,52.19
2023-03-16T12:55:21.158Z,51.85
2023-03-16T12:57:51.552Z,51.94
2023-03-16T13:00:19.541Z,51.45
2023-03-16T13:02:56.009Z,51.67
2023-03-16T13:05:36.650Z,51.55
2023-03-16T13:08:14.552Z,51.20
2023-03-16T13:10:41.453Z,50.94
2023-03-16T13:13:15.045Z,51.42
2023-03-16T13:15:49.574Z,51.05
2023-03-16T13:18:18.854Z,51.21
2023-03-16T13:20:48.375Z,50.95
2023-03-16T13:23:23.980Z,51.01
2023-03-16T13:26:15.759Z,50.61
2023-03-16T13:28:46.014Z,50.00
2023-03-16T13:31:35.889Z,49.43
2023-03-16T13:34:05.612Z,49.25
2023-03-16T13:36:33.417Z,49.05
2023-03-16T13:39:07.120Z,48.55
2023-03-16T13:41:34.337Z,48.41
2023-03-16T13:44:00.800Z,48.98
2023-03-16T13:46:29.468Z,48.90
2023-03-16T13:49:00.015Z,48.08
2023-03-16T13:51:30.845Z,47.95
2023-03-16T13:53:57.472Z,47.01
2023-03-16T13:56:28.848Z,47.49
2023-03-16T13:58:58.394Z,47.03
2023-03-16T14:01:30.955Z,47.63
2023-03-16T14:04:08.745Z,47.04
2023-03-16T14:06:35.831Z,47.02
2023-03-16T14:09:06.007Z,46.82
2023-03-16T14:11:32.468Z,46.71
2023-03-16T14:14:00.454Z,46.85
2023-03-16T14:16:29.647Z,46.78
2023-03-16T14:19:08.351Z,46.30
2023-03-16T14:21:35.248Z,46.38
2023-03-16T14:24:07.692Z,46.80
2023-03-16T14:26:48.012Z,47.08
2023-03-16T14:29:24.766Z,46.02
2023-03-16T14:31:51.392Z,46.85
2023-03-16T14:34:35.133Z,46.01
2023-03-16T14:37:09.968Z,46.10
2023-03-16T14:39:37.356Z,46.31
2023-03-16T14:42:05.286Z,45.97
2023-03-16T14:44:35.396Z,46.27
2023-03-16T14:47:04.636Z,46.44
2023-03-16T14:49:34.935Z,45.58
2023-03-16T14:52:04.715Z,46.32
2023-03-16T14:54:31.303Z,45.89
2023-03-16T14:57:03.776Z,45.88
2023-03-16T14:59:30.282Z,45.87
2023-03-16T15:01:57.870Z,46.27
2023-03-16T15:04:32.210Z,45.62
2023-03-16T15:06:59.381Z,45.44
2023-03-16T15:09:44.167Z,45.27
2023-03-16T15:12:16.604Z,44.93
2023-03-16T15:15:01.676Z,45.54
2023-03-16T15:17:28.320Z,45.52
2023-03-16T15:19:54.710Z,45.66
2023-03-16T15:22:28.310Z,45.43
2023-03-16T15:24:56.100Z,45.30
2023-03-16T15:27:25.729Z,44.90
2023-03-16T15:29:52.192Z,45.52
2023-03-16T15:32:18.598Z,45.01
2023-03-16T15:34:47.941Z,44.81
2023-03-16T15:37:16.093Z,45.50
2023-03-16T15:39:43.961Z,46.05
2023-03-16T15:42:16.547Z,45.85
2023-03-16T15:44:44.019Z,45.54
2023-03-16T15:47:10.919Z,45.09
2023-03-16T15:49:47.315Z,45.14
2023-03-16T15:52:30.463Z,45.21
2023-03-16T15:54:59.223Z,44.80
2023-03-16T15:57:26.128Z,44.55
2023-03-16T15:59:53.678Z,44.37
2023-03-16T16:02:29.454Z,44.15
2023-03-16T16:04:57.009Z,44.95
2023-03-16T16:07:23.469Z,45.35
2023-03-16T16:09:50.908Z,45.16
2023-03-16T16:12:19.014Z,45.19
2023-03-16T16:14:45.470Z,44.77
2023-03-16T16:17:15.682Z,45.08
2023-03-16T16:19:42.110Z,44.91
2023-03-16T16:22:12.985Z,45.03
2023-03-16T16:24:39.631Z,44.90
2023-03-16T16:27:10.783Z,45.07
2023-03-16T16:29:37.242Z,44.84
2023-03-16T16:32:04.249Z,45.26
2023-03-16T16:34:31.090Z,44.84
2023-03-16T16:36:57.754Z,45.30
2023-03-16T16:39:24.569Z,45.44
2023-03-16T16:41:54.618Z,44.46
2023-03-16T16:44:24.302Z,45.00
2023-03-16T16:46:51.846Z,45.24
2023-03-16T16:49:27.980Z,44.95
2023-03-16T16:51:54.657Z,45.27
2023-03-16T16:54:23.783Z,45.12
2023-03-16T16:56:52.932Z,44.76
2023-03-16T16:59:21.107Z,45.09
2023-03-16T17:01:51.680Z,45.03
2023-03-16T17:04:23.223Z,45.67
2023-03-16T17:06:52.153Z,45.31
2023-03-16T17:09:18.528Z,45.77
2023-03-16T17:11:45.832Z,45.77
2023-03-16T17:14:17.063Z,46.10
2023-03-16T17:16:44.632Z,46.62
2023-03-16T17:19:20.011Z,46.59
2023-03-16T17:21:46.750Z,46.59
2023-03-16T17:24:13.640Z,46.71
2023-03-16T17:26:44.460Z,47.15
2023-03-16T17:29:20.856Z,47.42
2023-03-16T17:31:49.664Z,47.47
2023-03-16T17:34:18.205Z,47.55
2023-03-16T17:36:46.116Z,47.51
2023-03-16T17:39:20.948Z,46.95
2023-03-16T17:41:56.340Z,47.46
2023-03-16T17:44:23.647Z,47.37
2023-03-16T17:46:50.346Z,47.18
2023-03-16T17:49:18.031Z,47.11
2023-03-16T17:51:46.500Z,46.83
2023-03-16T17:54:13.409Z,46.95
2023-03-16T17:56:41.575Z,46.48
2023-03-16T17:59:15.658Z,47.53
2023-03-16T18:01:44.400Z,47.28
2023-03-16T18:04:22.617Z,47.12
2023-03-16T18:06:51.004Z,47.22
2023-03-16T18:09:19.160Z,47.16
2023-03-16T18:11:49.045Z,46.75
2023-03-16T18:14:36.958Z,47.44
2023-03-16T18:17:16.821Z,47.51
2023-03-16T18:19:45.434Z,47.24
2023-03-16T18:22:21.844Z,47.52
2023-03-16T18:24:49.045Z,47.28
2023-03-16T18:27:15.668Z,47.31
2023-03-16T18:29:42.123Z,47.08
2023-03-16T18:32:23.821Z,46.87
2023-03-16T18:34:52.327Z,46.38
2023-03-16T18:37:24.356Z,46.26
2023-03-16T18:39:52.686Z,45.81
2023-03-16T18:42:24.277Z,46.94
2023-03-16T18:44:51.052Z,46.34
2023-03-16T18:47:23.674Z,46.02
2023-03-16T18:49:53.584Z,46.42
2023-03-16T18:52:23.287Z,46.26
2023-03-16T18:54:51.241Z,46.51
2023-03-16T18:57:21.103Z,46.49
2023-03-16T18:59:48.011Z,47.20
2023-03-16T19:02:28.787Z,47.18
2023-03-16T19:04:59.198Z,47.19
2023-03-16T19:07:32.350Z,47.24
2023-03-16T19:10:02.296Z,47.18
2023-03-16T19:12:28.697Z,47.51
2023-03-16T19:14:55.193Z,47.14
2023-03-16T19:17:21.586Z,47.45
2023-03-16T19:19:47.946Z,47.13
2023-03-16T19:22:18.957Z,47.52
2023-03-16T19:24:54.543Z,47.61
2023-03-16T19:27:25.423Z,48.51
2023-03-16T19:29:53.812Z,48.14
2023-03-16T19:32:21.897Z,47.53
2023-03-16T19:34:49.207Z,47.65
2023-03-16T19:37:17.988Z,48.07
2023-03-16T19:39:45.047Z,47.82
2023-03-16T19:42:24.103Z,47.87
2023-03-16T19:44:51.006Z,48.70
2023-03-16T19:47:37.619Z,48.30
2023-03-16T19:50:12.809Z,48.56
2023-03-16T19:52:39.185Z,47.95
2023-03-16T19:55:06.060Z,48.45
2023-03-16T19:57:33.843Z,48.58
2023-03-16T20:00:00.381Z,48.63
2023-03-16T20:02:32.642Z,47.90
2023-03-16T20:04:59.011Z,48.28
2023-03-16T20:07:25.933Z,48.32
2023-03-16T20:09:52.499Z,48.31
2023-03-16T20:12:25.981Z,48.48
2023-03-16T20:14:53.643Z,48.14
2023-03-16T20:17:26.951Z,48.08
2023-03-16T20:19:54.274Z,48.22
2023-03-16T20:22:23.681Z,48.33
2023-03-16T20:24:51.024Z,48.84
2023-03-16T20:27:19.800Z,48.80
2023-03-16T20:29:46.827Z,49.16
2023-03-16T20:32:19.591Z,49.32
2023-03-16T20:34:46.473Z,50.24
2023-03-16T20:37:25.925Z,49.67
2023-03-16T20:39:54.300Z,49.92
2023-03-16T20:42:28.620Z,49.72
2023-03-16T20:44:55.376Z,50.29
2023-03-16T20:47:24.047Z,50.46
2023-03-16T20:49:51.628Z,50.69
2023-03-16T20:52:28.212Z,51.02
2023-03-16T20:54:55.871Z,50.75
2023-03-16T20:57:27.496Z,50.90
2023-03-16T20:59:55.426Z,51.36
2023-03-16T21:02:28.664Z,50.90
2023-03-16T21:04:56.774Z,51.48
2023-03-16T21:07:23.311Z,50.83
2023-03-16T21:09:50.467Z,51.14
2023-03-16T21:12:28.900Z,51.83
2023-03-16T21:14:56.815Z,51.25
2023-03-16T21:17:34.290Z,51.63
2023-03-16T21:20:01.342Z,51.89
2023-03-16T21:22:34.704Z,51.97
2023-03-16T21:25:01.152Z,52.17
2023-03-16T21:27:33.525Z,52.23
2023-03-16T21:30:12.098Z,52.69
2023-03-16T21:32:38.546Z,52.01
2023-03-16T21:35:05.387Z,52.67
2023-03-16T21:37:31.882Z,52.15
2023-03-16T21:40:00.743Z,52.29
2023-03-16T21:42:27.601Z,52.92
2023-03-16T21:44:54.006Z,52.39
2023-03-16T21:47:27.985Z,52.39
2023-03-16T21:49:55.295Z,53.23
2023-03-16T21:52:30.117Z,53.04
2023-03-16T21:54:58.248Z,52.77
2023-03-16T21:57:24.793Z,52.74
2023-03-16T21:59:51.217Z,53.23
2023-03-16T22:02:22.435Z,53.44
2023-03-16T22:04:50.610Z,53.86
2023-03-16T22:07:18.012Z,53.62
2023-03-16T22:09:44.428Z,53.80
2023-03-16T22:12:12.664Z,54.03
2023-03-16T22:14:40.014Z,54.13
2023-03-16T22:17:11.110Z,54.03
2023-03-16T22:19:37.576Z,53.58
2023-03-16T22:22:04.078Z,53.91
2023-03-16T22:24:30.972Z,54.07
2023-03-16T22:26:58.065Z,54.34
2023-03-16T22:29:29.704Z,54.39
2023-03-16T22:31:59.374Z,54.34
2023-03-16T22:34:32.519Z,54.68
2023-03-16T22:37:01.568Z,54.51
2023-03-16T22:39:34.887Z,54.69
2023-03-16T22:42:01.579Z,54.61
2023-03-16T22:44:28.039Z,54.99
2023-03-16T22:46:54.478Z,55.14
2023-03-16T22:49:25.672Z,55.05
2023-03-16T22:51:55.469Z,54.71
2023-03-16T22:54:26.445Z,55.19
2023-03-16T22:56:53.535Z,54.91
2023-03-16T22:59:24.948Z,55.09
2023-03-16T23:01:51.621Z,55.18
2023-03-16T23:04:24.388Z,55.46
2023-03-16T23:06:53.362Z,55.19
2023-03-16T23:09:21.745Z,54.80
2023-03-16T23:11:53.862Z,55.40
2023-03-16T23:14:27.160Z,55.46
2023-03-16T23:16:53.962Z,55.41
2023-03-16T23:19:30.633Z,55.36
2023-03-16T23:22:01.452Z,55.12
2023-03-16T23:24:28.014Z,55.00
2023-03-16T23:26:55.333Z,55.63
2023-03-16T23:29:23.204Z,55.27
2023-03-16T23:31:50.477Z,55.41
2023-03-16T23:34:22.539Z,55.32
2023-03-16T23:36:50.051Z,55.22
2023-03-16T23:39:16.605Z,55.66
2023-03-16T23:41:46.220Z,56.03
2023-03-16T23:44:20.726Z,55.70
2023-03-16T23:46:47.330Z,55.74
2023-03-16T23:49:22.795Z,55.79
2023-03-16T23:51:50.124Z,55.46
2023-03-16T23:54:23.336Z,55.45
2023-03-16T23:56:50.544Z,55.63
2023-03-16T23:59:17.494Z,55.47
